createdAt,value
2022-08-19T00:02:19.534Z,8.98
2022-08-19T00:05:23.149Z,11.10
2022-08-19T00:08:25.583Z,8.30
2022-08-19T00:11:28.950Z,8.27
2022-08-19T00:14:32.524Z,9.00
2022-08-19T00:17:35.186Z,7.50
2022-08-19T00:20:41.428Z,11.18
2022-08-19T00:23:44.208Z,10.07
2022-08-19T00:26:46.770Z,8.82
2022-08-19T00:29:52.639Z,8.10
2022-08-19T00:32:58.465Z,8.68
2022-08-19T00:36:02.269Z,8.93
2022-08-19T00:39:05.073Z,11.00
2022-08-19T00:42:07.537Z,7.55
2022-08-19T00:45:14.075Z,6.85
2022-08-19T00:48:17.501Z,6.85
2022-08-19T00:51:20.045Z,7.75
2022-08-19T00:54:28.262Z,9.03
2022-08-19T00:57:41.263Z,8.88
2022-08-19T01:00:43.757Z,10.73
2022-08-19T01:03:58.014Z,8.55
2022-08-19T01:07:02.735Z,8.40
2022-08-19T01:10:10.367Z,8.90
2022-08-19T01:13:16.109Z,7.10
2022-08-19T01:16:21.669Z,7.72
2022-08-19T01:19:43.746Z,7.93
2022-08-19T01:22:53.405Z,9.23
2022-08-19T01:25:56.834Z,8.63
2022-08-19T01:29:02.210Z,8.52
2022-08-19T01:32:32.418Z,10.88
2022-08-19T01:35:36.795Z,8.82
2022-08-19T01:38:44.186Z,10.40
2022-08-19T01:41:49.011Z,10.67
2022-08-19T01:44:51.387Z,8.57
2022-08-19T01:48:01.185Z,7.57
2022-08-19T01:51:04.287Z,6.85
2022-08-19T01:54:06.866Z,10.25
2022-08-19T01:57:13.590Z,8.90
2022-08-19T02:00:18.524Z,7.78
2022-08-19T02:03:20.864Z,7.60
2022-08-19T02:06:26.982Z,8.23
2022-08-19T02:09:29.536Z,9.98
2022-08-19T02:12:32.058Z,9.20
2022-08-19T02:15:34.456Z,7.53
2022-08-19T02:18:36.977Z,8.82
2022-08-19T02:21:39.324Z,10.38
2022-08-19T02:24:41.821Z,8.15
2022-08-19T02:27:44.196Z,8.70
2022-08-19T02:30:48.297Z,9.00
2022-08-19T02:33:51.509Z,8.88
2022-08-19T02:36:53.990Z,11.43
2022-08-19T02:39:56.606Z,13.18
2022-08-19T02:42:59.130Z,10.43
2022-08-19T02:46:01.988Z,8.60
2022-08-19T02:49:08.262Z,8.30
2022-08-19T02:52:12.140Z,7.53
2022-08-19T02:55:14.728Z,9.95
2022-08-19T02:58:17.671Z,7.70
2022-08-19T03:01:30.653Z,11.38
2022-08-19T03:04:33.041Z,9.50
2022-08-19T03:07:35.483Z,8.35
2022-08-19T03:10:48.138Z,9.10
2022-08-19T03:13:51.866Z,7.53
2022-08-19T03:16:54.272Z,8.02
2022-08-19T03:19:56.749Z,8.38
2022-08-19T03:22:59.086Z,8.02
2022-08-19T03:26:16.662Z,7.75
2022-08-19T03:29:30.852Z,9.30
2022-08-19T03:32:34.537Z,7.88
2022-08-19T03:35:39.884Z,10.05
2022-08-19T03:38:49.431Z,10.57
2022-08-19T03:42:32.707Z,10.57
2022-08-19T03:45:24.196Z,8.50
2022-08-19T03:48:26.669Z,9.18
2022-08-19T03:51:35.903Z,8.50
2022-08-19T03:54:39.490Z,9.80
2022-08-19T03:57:42.043Z,9.25
2022-08-19T04:00:44.551Z,8.30
2022-08-19T04:03:47.741Z,8.48
2022-08-19T04:06:51.731Z,7.55
2022-08-19T04:09:54.363Z,8.48
2022-08-19T04:12:56.752Z,9.63
2022-08-19T04:15:59.158Z,8.30
2022-08-19T04:19:04.353Z,9.27
2022-08-19T04:22:08.218Z,10.20
2022-08-19T04:25:11.199Z,8.57
2022-08-19T04:28:14.472Z,9.98
2022-08-19T04:31:27.071Z,11.40
2022-08-19T04:34:30.618Z,7.68
2022-08-19T04:37:35.314Z,10.93
2022-08-19T04:41:01.215Z,11.00
2022-08-19T04:44:04.561Z,8.57
2022-08-19T04:47:11.342Z,8.93
2022-08-19T04:50:14.064Z,12.35
2022-08-19T04:53:16.443Z,12.02
2022-08-19T04:56:23.586Z,9.48
2022-08-19T04:59:26.188Z,8.75
2022-08-19T05:02:28.651Z,8.43
2022-08-19T05:05:32.196Z,10.43
2022-08-19T05:08:48.425Z,8.95
2022-08-19T05:11:54.532Z,8.38
2022-08-19T05:14:58.601Z,8.68
2022-08-19T05:18:19.536Z,10.10
2022-08-19T05:21:42.040Z,12.38
2022-08-19T05:25:09.410Z,9.23
2022-08-19T05:28:06.792Z,9.70
2022-08-19T05:31:09.215Z,7.25
2022-08-19T05:34:20.087Z,8.00
2022-08-19T05:37:23.306Z,9.05
2022-08-19T05:40:25.650Z,7.90
2022-08-19T05:43:29.327Z,8.32
2022-08-19T05:46:31.663Z,9.35
2022-08-19T05:49:35.259Z,9.10
2022-08-19T05:52:43.689Z,11.43
2022-08-19T05:55:48.419Z,9.27
2022-08-19T05:58:51.071Z,10.00
2022-08-19T06:01:56.665Z,9.27
2022-08-19T06:04:59.278Z,7.57
2022-08-19T06:08:01.950Z,7.93
2022-08-19T06:11:19.128Z,9.32
2022-08-19T06:14:27.857Z,8.68
2022-08-19T06:17:37.476Z,9.57
2022-08-19T06:20:55.151Z,8.00
2022-08-19T06:24:07.279Z,12.48
2022-08-19T06:27:10.020Z,10.48
2022-08-19T06:30:13.413Z,10.20
2022-08-19T06:33:15.829Z,13.23
2022-08-19T06:36:35.089Z,9.57
2022-08-19T06:39:41.388Z,8.57
2022-08-19T06:42:50.225Z,7.55
2022-08-19T06:45:58.017Z,8.40
2022-08-19T06:49:01.743Z,9.02
2022-08-19T06:52:05.724Z,8.67
2022-08-19T06:55:08.439Z,9.73
2022-08-19T06:58:11.320Z,8.73
2022-08-19T07:01:13.792Z,8.90
2022-08-19T07:04:19.184Z,11.52
2022-08-19T07:07:22.093Z,13.13
2022-08-19T07:10:25.793Z,10.48
2022-08-19T07:13:28.226Z,9.98
2022-08-19T07:16:31.015Z,13.07
2022-08-19T07:19:34.942Z,11.43
2022-08-19T07:22:39.020Z,12.70
2022-08-19T07:25:41.443Z,10.35
2022-08-19T07:28:46.033Z,7.68
2022-08-19T07:31:57.410Z,10.93
2022-08-19T07:35:04.401Z,9.32
2022-08-19T07:38:06.800Z,7.17
2022-08-19T07:41:16.211Z,6.45
2022-08-19T07:44:21.123Z,7.57
2022-08-19T07:47:49.333Z,8.80
2022-08-19T07:50:46.427Z,9.07
2022-08-19T07:53:51.529Z,8.40
2022-08-19T07:56:54.305Z,7.55
2022-08-19T08:00:00.955Z,9.90
2022-08-19T08:03:03.356Z,7.25
2022-08-19T08:06:24.961Z,7.95
2022-08-19T08:09:34.831Z,7.13
2022-08-19T08:12:44.428Z,7.95
2022-08-19T08:16:10.194Z,10.35
2022-08-19T08:19:25.915Z,7.47
2022-08-19T08:22:48.259Z,7.70
2022-08-19T08:25:58.015Z,8.97
2022-08-19T08:29:00.518Z,7.22
2022-08-19T08:32:14.276Z,9.55
2022-08-19T08:35:21.089Z,7.15
2022-08-19T08:38:23.888Z,8.48
2022-08-19T08:41:59.139Z,8.57
2022-08-19T08:45:07.588Z,6.47
2022-08-19T08:48:54.462Z,7.03
2022-08-19T08:52:24.737Z,10.93
2022-08-19T08:55:36.791Z,7.70
2022-08-19T08:59:08.961Z,6.33
2022-08-19T09:02:11.369Z,8.60
2022-08-19T09:05:16.837Z,6.70
2022-08-19T09:08:25.076Z,5.88
2022-08-19T09:11:42.807Z,8.05
2022-08-19T09:15:06.527Z,7.73
2022-08-19T09:18:18.155Z,7.15
2022-08-19T09:21:30.346Z,7.68
2022-08-19T09:24:36.860Z,6.28
2022-08-19T09:27:43.738Z,6.60
2022-08-19T09:30:46.272Z,8.13
2022-08-19T09:33:49.415Z,7.32
2022-08-19T09:36:55.746Z,7.45
2022-08-19T09:39:58.816Z,6.97
2022-08-19T09:43:09.874Z,8.40
2022-08-19T09:46:15.769Z,6.10
2022-08-19T09:49:22.782Z,6.80
2022-08-19T09:52:32.653Z,9.27
2022-08-19T09:55:35.373Z,7.25
2022-08-19T09:58:38.491Z,6.63
2022-08-19T10:01:41.365Z,7.27
2022-08-19T10:05:02.431Z,6.30
2022-08-19T10:08:04.869Z,7.47
2022-08-19T10:11:28.840Z,5.95
2022-08-19T10:14:40.483Z,6.75
2022-08-19T10:17:47.603Z,6.80
2022-08-19T10:21:09.577Z,7.68
2022-08-19T10:24:14.076Z,7.57
2022-08-19T10:27:16.634Z,7.15
2022-08-19T10:30:20.126Z,8.75
2022-08-19T10:33:39.078Z,7.53
2022-08-19T10:36:53.852Z,7.00
2022-08-19T10:39:59.174Z,7.28
2022-08-19T10:43:01.517Z,15.77
2022-08-19T10:46:05.374Z,7.45
2022-08-19T10:49:12.516Z,7.63
2022-08-19T10:52:33.344Z,7.40
2022-08-19T10:55:55.015Z,8.07
2022-08-19T10:58:59.026Z,7.45
2022-08-19T11:02:03.130Z,9.52
2022-08-19T11:05:12.372Z,9.20
2022-08-19T11:08:23.150Z,6.85
2022-08-19T11:11:27.301Z,9.23
2022-08-19T11:14:32.201Z,8.45
2022-08-19T11:17:37.081Z,6.53
2022-08-19T11:20:39.451Z,7.90
2022-08-19T11:23:42.133Z,8.60
2022-08-19T11:26:45.818Z,7.63
2022-08-19T11:29:48.290Z,8.95
2022-08-19T11:32:50.615Z,7.38
2022-08-19T11:35:54.441Z,7.23
2022-08-19T11:38:56.846Z,7.93
2022-08-19T11:42:25.151Z,8.63
2022-08-19T11:45:29.689Z,9.77
2022-08-19T11:48:32.118Z,6.75
2022-08-19T11:51:34.919Z,8.10
2022-08-19T11:54:37.404Z,7.63
2022-08-19T11:57:41.891Z,6.03
2022-08-19T12:00:46.319Z,6.82
2022-08-19T12:03:50.861Z,6.43
2022-08-19T12:06:54.150Z,7.00
2022-08-19T12:09:56.475Z,8.90
2022-08-19T12:12:59.171Z,11.60
2022-08-19T12:16:02.806Z,9.57
2022-08-19T12:19:06.478Z,8.90
2022-08-19T12:22:08.873Z,12.83
2022-08-19T12:25:12.251Z,8.50
2022-08-19T12:28:14.645Z,13.50
2022-08-19T12:31:17.609Z,9.38
2022-08-19T12:34:22.152Z,7.65
2022-08-19T12:37:24.672Z,9.23
2022-08-19T12:40:27.568Z,9.98
2022-08-19T12:43:31.392Z,7.13
2022-08-19T12:46:33.718Z,7.90
2022-08-19T12:49:54.591Z,9.32
2022-08-19T12:52:58.763Z,7.47
2022-08-19T12:56:01.388Z,8.98
2022-08-19T12:59:05.743Z,6.95
2022-08-19T13:02:08.976Z,8.55
2022-08-19T13:05:13.801Z,9.00
2022-08-19T13:08:16.375Z,12.10
2022-08-19T13:11:21.289Z,11.07
2022-08-19T13:14:24.094Z,16.52
2022-08-19T13:17:26.485Z,10.40
2022-08-19T13:20:29.171Z,11.05
2022-08-19T13:23:32.093Z,11.63
2022-08-19T13:26:34.651Z,13.40
2022-08-19T13:29:55.779Z,9.25
2022-08-19T13:33:16.030Z,6.93
2022-08-19T13:36:18.722Z,8.10
2022-08-19T13:39:21.655Z,6.77
2022-08-19T13:42:26.412Z,7.55
2022-08-19T13:45:30.720Z,10.05
2022-08-19T13:48:33.118Z,6.63
2022-08-19T13:51:38.479Z,8.93
2022-08-19T13:54:42.546Z,6.37
2022-08-19T13:57:45.143Z,7.65
2022-08-19T14:00:48.571Z,9.68
2022-08-19T14:03:51.127Z,8.10
2022-08-19T14:06:53.466Z,7.32
2022-08-19T14:09:55.981Z,6.77
2022-08-19T14:13:01.265Z,6.57
2022-08-19T14:16:10.920Z,10.57
2022-08-19T14:19:13.230Z,13.20
2022-08-19T14:22:15.779Z,8.60
2022-08-19T14:25:27.622Z,8.57
2022-08-19T14:28:31.308Z,8.60
2022-08-19T14:31:33.652Z,7.88
2022-08-19T14:34:38.467Z,5.28
2022-08-19T14:37:45.283Z,7.55
2022-08-19T14:40:49.958Z,8.70
2022-08-19T14:43:54.032Z,6.30
2022-08-19T14:46:56.447Z,7.68
2022-08-19T14:49:59.904Z,8.40
2022-08-19T14:53:11.911Z,6.60
2022-08-19T14:56:19.427Z,5.70
2022-08-19T14:59:22.226Z,5.85
2022-08-19T15:02:35.034Z,10.68
2022-08-19T15:05:37.846Z,6.03
2022-08-19T15:08:42.579Z,7.00
2022-08-19T15:11:45.059Z,7.40
2022-08-19T15:14:51.067Z,8.32
2022-08-19T15:18:03.222Z,7.60
2022-08-19T15:21:05.994Z,9.63
2022-08-19T15:24:10.199Z,8.57
2022-08-19T15:27:13.883Z,7.27
2022-08-19T15:30:24.794Z,8.85
2022-08-19T15:33:27.147Z,6.43
2022-08-19T15:36:29.692Z,7.85
2022-08-19T15:39:33.237Z,8.32
2022-08-19T15:42:42.447Z,8.77
2022-08-19T15:45:49.297Z,9.57
2022-08-19T15:48:56.013Z,6.85
2022-08-19T15:52:02.340Z,11.82
2022-08-19T15:55:07.627Z,8.70
2022-08-19T15:58:32.846Z,7.63
2022-08-19T16:01:53.977Z,7.20
2022-08-19T16:05:15.990Z,7.15
2022-08-19T16:08:18.706Z,7.22
2022-08-19T16:11:29.258Z,7.45
2022-08-19T16:14:35.061Z,8.17
2022-08-19T16:17:37.571Z,7.28
2022-08-19T16:20:40.056Z,10.90
2022-08-19T16:23:42.728Z,10.63
2022-08-19T16:26:46.420Z,8.50
2022-08-19T16:29:48.759Z,10.63
2022-08-19T16:32:51.315Z,12.52
2022-08-19T16:36:00.118Z,7.28
2022-08-19T16:39:04.324Z,11.15
2022-08-19T16:42:08.953Z,9.75
2022-08-19T16:45:11.461Z,10.97
2022-08-19T16:48:13.805Z,10.40
2022-08-19T16:51:16.542Z,9.07
2022-08-19T16:54:19.042Z,9.90
2022-08-19T16:57:23.870Z,10.02
2022-08-19T17:00:26.248Z,8.07
2022-08-19T17:03:36.338Z,7.70
2022-08-19T17:06:46.192Z,6.65
2022-08-19T17:09:48.599Z,9.32
2022-08-19T17:12:54.881Z,9.57
2022-08-19T17:15:57.700Z,8.03
2022-08-19T17:19:01.843Z,11.15
2022-08-19T17:22:04.357Z,9.20
2022-08-19T17:25:07.377Z,7.30
2022-08-19T17:28:14.779Z,8.55
2022-08-19T17:31:19.836Z,6.97
2022-08-19T17:34:22.367Z,9.15
2022-08-19T17:37:24.703Z,8.85
2022-08-19T17:40:29.197Z,9.27
2022-08-19T17:43:36.528Z,10.65
2022-08-19T17:46:41.522Z,10.00
2022-08-19T17:49:43.878Z,9.13
2022-08-19T17:52:46.329Z,9.43
2022-08-19T17:55:48.672Z,8.35
2022-08-19T17:59:00.007Z,8.68
2022-08-19T18:02:04.806Z,10.63
2022-08-19T18:05:07.414Z,9.23
2022-08-19T18:08:11.300Z,7.88
2022-08-19T18:11:13.728Z,9.98
2022-08-19T18:14:16.123Z,7.80
2022-08-19T18:17:19.398Z,12.10
2022-08-19T18:20:22.849Z,8.13
2022-08-19T18:23:44.450Z,9.77
2022-08-19T18:26:48.842Z,11.35
2022-08-19T18:29:51.627Z,9.07
2022-08-19T18:32:54.643Z,8.53
2022-08-19T18:35:57.081Z,9.60
2022-08-19T18:39:18.073Z,7.75
2022-08-19T18:42:39.500Z,7.15
2022-08-19T18:46:01.823Z,9.43
2022-08-19T18:49:05.296Z,11.33
2022-08-19T18:52:07.743Z,10.23
2022-08-19T18:55:10.360Z,9.85
2022-08-19T18:58:13.243Z,7.55
2022-08-19T19:01:22.539Z,9.95
2022-08-19T19:04:32.122Z,11.83
2022-08-19T19:07:35.887Z,10.98
2022-08-19T19:10:38.751Z,8.82
2022-08-19T19:13:41.479Z,9.05
2022-08-19T19:16:45.964Z,11.15
2022-08-19T19:19:49.406Z,9.83
2022-08-19T19:22:51.804Z,8.95
2022-08-19T19:25:58.504Z,8.98
2022-08-19T19:29:00.920Z,12.25
2022-08-19T19:32:05.595Z,10.20
2022-08-19T19:35:10.701Z,12.20
2022-08-19T19:38:13.161Z,12.30
2022-08-19T19:41:18.888Z,10.38
2022-08-19T19:44:29.883Z,9.98
2022-08-19T19:47:33.578Z,10.23
2022-08-19T19:50:36.006Z,9.07
2022-08-19T19:53:38.554Z,9.38
2022-08-19T19:56:48.662Z,10.23
2022-08-19T19:59:51.465Z,11.80
2022-08-19T20:02:55.350Z,12.85
2022-08-19T20:05:59.395Z,13.63
2022-08-19T20:09:11.026Z,9.93
2022-08-19T20:12:13.377Z,14.40
2022-08-19T20:15:15.807Z,10.00
2022-08-19T20:18:18.221Z,10.10
2022-08-19T20:21:21.184Z,11.63
2022-08-19T20:24:27.792Z,11.07
2022-08-19T20:27:31.135Z,12.20
2022-08-19T20:30:41.356Z,11.35
2022-08-19T20:33:49.459Z,9.57
2022-08-19T20:36:52.048Z,11.50
2022-08-19T20:39:54.533Z,12.43
2022-08-19T20:42:57.479Z,12.15
2022-08-19T20:46:02.583Z,11.63
2022-08-19T20:49:05.837Z,11.77
2022-08-19T20:52:08.587Z,11.47
2022-08-19T20:55:12.375Z,12.30
2022-08-19T20:58:16.364Z,14.50
2022-08-19T21:01:18.789Z,8.90
2022-08-19T21:04:21.913Z,12.50
2022-08-19T21:07:24.260Z,12.00
2022-08-19T21:10:42.500Z,12.02
2022-08-19T21:13:44.957Z,11.45
2022-08-19T21:16:47.458Z,9.73
2022-08-19T21:19:49.833Z,12.32
2022-08-19T21:22:52.275Z,12.07
2022-08-19T21:25:56.928Z,10.35
2022-08-19T21:28:59.366Z,12.75
2022-08-19T21:32:01.711Z,11.27
2022-08-19T21:35:04.753Z,11.95
2022-08-19T21:38:07.138Z,13.23
2022-08-19T21:41:09.644Z,12.05
2022-08-19T21:44:12.299Z,9.40
2022-08-19T21:47:15.001Z,14.65
2022-08-19T21:50:17.689Z,9.90
2022-08-19T21:53:22.844Z,11.23
2022-08-19T21:56:25.563Z,10.60
2022-08-19T21:59:28.143Z,12.35
2022-08-19T22:02:31.129Z,13.57
2022-08-19T22:05:34.410Z,12.93
2022-08-19T22:08:37.247Z,13.77
2022-08-19T22:11:39.993Z,10.88
2022-08-19T22:14:42.332Z,13.35
2022-08-19T22:17:44.876Z,15.68
2022-08-19T22:20:48.060Z,12.40
2022-08-19T22:23:50.483Z,15.30
2022-08-19T22:26:52.823Z,14.88
2022-08-19T22:29:55.566Z,14.50
2022-08-19T22:33:08.317Z,14.20
2022-08-19T22:36:10.989Z,9.90
2022-08-19T22:39:13.355Z,14.10
2022-08-19T22:42:20.143Z,12.32
2022-08-19T22:45:22.691Z,14.40
2022-08-19T22:48:28.379Z,11.70
2022-08-19T22:51:50.933Z,13.68
2022-08-19T22:54:56.919Z,16.03
2022-08-19T22:57:59.447Z,17.15
2022-08-19T23:01:01.995Z,12.95
2022-08-19T23:04:05.551Z,14.02
2022-08-19T23:07:09.375Z,16.55
2022-08-19T23:10:11.990Z,14.00
2022-08-19T23:13:17.502Z,16.92
2022-08-19T23:16:19.852Z,13.88
2022-08-19T23:19:22.971Z,15.98
2022-08-19T23:22:25.632Z,17.52
2022-08-19T23:25:30.462Z,15.30
2022-08-19T23:28:51.338Z,13.65
2022-08-19T23:31:53.853Z,14.23
2022-08-19T23:34:56.616Z,16.38
2022-08-19T23:38:01.209Z,15.10
2022-08-19T23:41:05.846Z,16.33
2022-08-19T23:44:14.919Z,14.02
2022-08-19T23:47:17.845Z,12.63
2022-08-19T23:50:22.136Z,14.82
2022-08-19T23:53:25.496Z,11.98
2022-08-19T23:56:27.950Z,12.90
2022-08-19T23:59:30.302Z,14.88
